Time;durP1;ratioP1;P1;durP2;ratioP2;P2;SDS_P1;SDS_P2;PMS_P1;PMS_P2;Temp;Humidity;BMP_temperature;BMP_pressure;BME280_temperature;BME280_humidity;BME280_pressure;Samples;Min_cycle;Max_cycle;Signal;HPM_P1;HPM_P2
2022/01/26 00:05:44;;;;;;;67.30;32.30;;;3.40;99.90;;;;;;4952577;29;20175;-80
2022/01/26 00:06:29;;;;;;;64.70;32.80;;;3.30;99.90;;;;;;4954582;28;20186;-80
2022/01/26 00:08:55;;;;;;;59.83;30.17;;;3.40;99.90;;;;;;4954070;28;20178;-81
2022/01/26 00:11:20;;;;;;;65.10;33.43;;;3.30;99.90;;;;;;4953067;28;20589;-80
2022/01/26 00:13:46;;;;;;;65.50;31.83;;;3.30;99.90;;;;;;4952943;28;20175;-80
2022/01/26 00:16:54;;;;;;;59.33;31.37;;;3.30;99.90;;;;;;4954230;28;20195;-81
2022/01/26 00:19:02;;;;;;;58.80;30.90;;;3.30;99.90;;;;;;4944099;28;20281;-81
2022/01/26 00:21:35;;;;;;;68.00;32.77;;;3.40;99.90;;;;;;4952952;29;20233;-80
2022/01/26 00:26:58;;;;;;;67.67;32.80;;;3.40;99.90;;;;;;4953993;28;20171;-80
2022/01/26 00:29:17;;;;;;;60.20;30.57;;;3.30;99.90;;;;;;4954520;28;20206;-80
2022/01/26 00:33:07;;;;;;;62.40;31.80;;;3.30;99.90;;;;;;4954429;28;20706;-80
2022/01/26 00:40:35;;;;;;;65.43;30.83;;;3.30;99.90;;;;;;4955154;29;20591;-80
2022/01/26 00:43:13;;;;;;;60.67;30.73;;;3.30;99.90;;;;;;4954385;28;20158;-80
2022/01/26 00:45:40;;;;;;;61.27;31.17;;;3.30;99.90;;;;;;4953489;28;20248;-81
2022/01/26 00:48:08;;;;;;;62.53;31.93;;;3.30;99.90;;;;;;4952299;28;20194;-81
2022/01/26 00:50:35;;;;;;;63.67;31.33;;;3.30;99.90;;;;;;4951438;28;20186;-80
2022/01/26 00:53:01;;;;;;;57.90;30.33;;;3.30;99.90;;;;;;4952504;28;20210;-81
2022/01/26 00:55:27;;;;;;;66.07;32.17;;;3.30;99.90;;;;;;4951494;28;20679;-81
2022/01/26 00:57:52;;;;;;;65.17;32.73;;;3.30;99.90;;;;;;4951633;28;20687;-81
2022/01/26 01:00:21;;;;;;;61.33;30.67;;;3.30;99.90;;;;;;4952643;28;20551;-81
2022/01/26 01:02:48;;;;;;;60.77;31.13;;;3.40;99.90;;;;;;4954359;28;20179;-80
2022/01/26 01:05:20;;;;;;;64.90;33.40;;;3.30;99.90;;;;;;4954525;28;20195;-80
2022/01/26 01:07:49;;;;;;;65.37;33.63;;;3.30;99.90;;;;;;4955857;28;20185;-80
2022/01/26 01:10:18;;;;;;;64.23;32.53;;;3.30;99.90;;;;;;4952136;28;20251;-81
2022/01/26 01:12:44;;;;;;;59.17;32.10;;;3.20;99.90;;;;;;4951286;28;20298;-80
2022/01/26 01:15:12;;;;;;;63.37;33.00;;;3.20;99.90;;;;;;4950749;29;20199;-81
2022/01/26 01:17:43;;;;;;;60.90;33.53;;;3.30;99.90;;;;;;4952237;28;20259;-80
2022/01/26 01:22:49;;;;;;;65.63;33.67;;;3.20;99.90;;;;;;4954048;28;20248;-80
2022/01/26 01:30:43;;;;;;;63.77;34.23;;;3.20;99.90;;;;;;4953975;28;20268;-80
2022/01/26 01:33:14;;;;;;;73.53;35.13;;;3.20;99.90;;;;;;4954035;29;20179;-80
2022/01/26 01:35:43;;;;;;;67.83;36.47;;;3.20;99.90;;;;;;4952366;28;20222;-80
2022/01/26 01:38:16;;;;;;;72.60;37.17;;;3.20;99.90;;;;;;4952323;28;20183;-80
2022/01/26 01:40:46;;;;;;;69.63;36.10;;;3.20;99.90;;;;;;4952484;29;20607;-80
2022/01/26 01:43:12;;;;;;;63.13;34.10;;;3.20;99.90;;;;;;4952277;28;20183;-80
2022/01/26 01:45:45;;;;;;;63.00;34.87;;;3.20;99.90;;;;;;4953473;28;20214;-80
2022/01/26 01:48:14;;;;;;;61.43;35.13;;;3.20;99.90;;;;;;4953825;28;20159;-80
2022/01/26 01:50:41;;;;;;;64.00;35.37;;;3.20;99.90;;;;;;4952171;28;20278;-80
2022/01/26 01:53:09;;;;;;;64.57;35.87;;;3.20;99.90;;;;;;4953685;28;20175;-80
2022/01/26 01:55:42;;;;;;;61.63;34.33;;;3.20;99.90;;;;;;4951767;28;20752;-80
2022/01/26 01:58:08;;;;;;;64.87;35.10;;;3.20;99.90;;;;;;4952050;29;20195;-80
2022/01/26 02:00:35;;;;;;;68.20;37.70;;;3.20;99.90;;;;;;4951232;28;20229;-80
2022/01/26 02:03:01;;;;;;;75.60;36.67;;;3.20;99.90;;;;;;4951340;29;20233;-80
2022/01/26 02:05:26;;;;;;;70.43;38.70;;;3.20;99.90;;;;;;4950898;28;20199;-80
2022/01/26 02:07:52;;;;;;;69.30;37.27;;;3.10;99.90;;;;;;4952429;29;20197;-80
2022/01/26 02:10:19;;;;;;;66.23;36.33;;;3.20;99.90;;;;;;4952978;28;20675;-80
2022/01/26 02:12:49;;;;;;;72.80;38.23;;;3.20;99.90;;;;;;4953984;28;20202;-80
2022/01/26 02:15:23;;;;;;;70.20;36.97;;;3.20;99.90;;;;;;4955114;28;20183;-80
2022/01/26 02:20:43;;;;;;;70.90;38.17;;;3.20;99.90;;;;;;4955596;28;20271;-80
2022/01/26 02:56:20;;;;;;;102.13;49.57;;;3.10;99.90;;;;;;4955118;28;20226;-80
2022/01/26 03:04:32;;;;;;;109.67;50.73;;;3.10;99.90;;;;;;4954920;28;20174;-80
2022/01/26 03:09:39;;;;;;;121.50;53.17;;;3.10;99.90;;;;;;4954732;29;20246;-80
2022/01/26 03:12:06;;;;;;;115.47;52.50;;;3.10;99.90;;;;;;4954883;29;20199;-80
2022/01/26 03:17:24;;;;;;;114.13;51.30;;;3.10;99.90;;;;;;4954206;29;20170;-80
2022/01/26 03:19:53;;;;;;;112.93;52.33;;;3.10;99.90;;;;;;4954172;29;20148;-80
2022/01/26 03:38:25;;;;;;;110.33;50.50;;;3.10;99.90;;;;;;4954426;28;20613;-80
2022/01/26 03:41:08;;;;;;;109.77;51.10;;;3.10;99.90;;;;;;4958245;28;20201;-80
2022/01/26 03:43:34;;;;;;;107.47;50.13;;;3.10;99.90;;;;;;4968471;28;20183;-80
2022/01/26 03:45:59;;;;;;;103.60;47.67;;;3.10;99.90;;;;;;4968852;28;20211;-79
2022/01/26 03:48:25;;;;;;;108.53;50.40;;;3.10;99.90;;;;;;4968657;29;20183;-80
2022/01/26 03:50:50;;;;;;;111.30;51.27;;;3.10;99.90;;;;;;4966700;29;20273;-79
2022/01/26 03:53:16;;;;;;;114.00;50.20;;;3.00;99.90;;;;;;4967837;28;20581;-79
2022/01/26 03:55:41;;;;;;;113.33;50.33;;;3.10;99.90;;;;;;4965232;28;20195;-79
2022/01/26 03:58:07;;;;;;;113.57;50.50;;;3.10;99.90;;;;;;4964969;28;20178;-80
2022/01/26 04:00:33;;;;;;;113.67;49.90;;;3.10;99.90;;;;;;4955553;28;20179;-79
2022/01/26 04:02:58;;;;;;;107.83;48.03;;;3.10;99.90;;;;;;4956026;28;20189;-80
2022/01/26 04:05:25;;;;;;;110.67;49.43;;;3.10;99.90;;;;;;4959288;28;20199;-80
2022/01/26 04:07:56;;;;;;;111.40;50.07;;;3.10;99.90;;;;;;4963590;28;20183;-80
2022/01/26 04:10:36;;;;;;;113.03;48.33;;;3.10;99.90;;;;;;4958736;29;20182;-79
2022/01/26 04:13:02;;;;;;;113.87;48.87;;;3.10;99.90;;;;;;4958807;29;20660;-79
2022/01/26 04:15:31;;;;;;;110.00;51.07;;;3.10;99.90;;;;;;4959968;28;20201;-80
2022/01/26 04:17:58;;;;;;;111.73;50.23;;;3.10;99.90;;;;;;4955619;28;20175;-80
2022/01/26 04:20:27;;;;;;;113.50;50.17;;;3.10;99.90;;;;;;4954981;28;20171;-80
2022/01/26 04:23:07;;;;;;;111.83;50.07;;;3.00;99.90;;;;;;4954784;29;20171;-80
2022/01/26 04:25:33;;;;;;;106.33;46.63;;;3.10;99.90;;;;;;4953495;29;20190;-78
2022/01/26 04:28:04;;;;;;;109.87;48.77;;;3.10;99.90;;;;;;4953369;28;20627;-79
2022/01/26 04:30:29;;;;;;;108.40;48.33;;;3.10;99.90;;;;;;4954828;28;20159;-78
2022/01/26 04:33:00;;;;;;;109.97;48.67;;;3.10;99.90;;;;;;4953972;28;20198;-79
2022/01/26 04:35:25;;;;;;;104.40;47.17;;;3.10;99.90;;;;;;4953182;29;20219;-78
2022/01/26 04:38:11;;;;;;;105.33;46.80;;;3.10;99.90;;;;;;4953040;28;20597;-78
2022/01/26 04:40:42;;;;;;;106.83;46.93;;;3.10;99.90;;;;;;4953531;28;20655;-79
2022/01/26 04:43:16;;;;;;;111.13;48.27;;;3.10;99.90;;;;;;4953278;29;20179;-79
2022/01/26 04:45:42;;;;;;;99.90;48.07;;;3.00;99.90;;;;;;4953299;29;20302;-79
2022/01/26 04:48:07;;;;;;;105.97;47.03;;;3.00;99.90;;;;;;4952244;28;20222;-80
2022/01/26 04:50:33;;;;;;;109.63;49.73;;;3.10;99.90;;;;;;4954080;28;20190;-79
2022/01/26 04:52:58;;;;;;;111.33;50.33;;;3.10;99.90;;;;;;4952667;29;20214;-78
2022/01/26 04:55:24;;;;;;;110.80;49.87;;;3.00;99.90;;;;;;4952428;28;20226;-79
2022/01/26 04:57:49;;;;;;;108.60;47.70;;;3.10;99.90;;;;;;4953684;29;20178;-79
2022/01/26 05:00:15;;;;;;;110.67;48.07;;;3.00;99.90;;;;;;4952892;28;20178;-79
2022/01/26 05:02:41;;;;;;;110.20;48.53;;;3.00;99.90;;;;;;4954278;28;20701;-78
2022/01/26 05:05:07;;;;;;;103.07;46.33;;;3.00;99.90;;;;;;4953831;29;20234;-79
2022/01/26 05:07:33;;;;;;;107.90;47.57;;;3.00;99.90;;;;;;4954828;28;20657;-80
2022/01/26 05:09:58;;;;;;;111.60;48.70;;;3.00;99.90;;;;;;4953862;29;20640;-79
2022/01/26 05:12:24;;;;;;;109.90;47.07;;;3.00;99.90;;;;;;4952850;28;20577;-78
2022/01/26 05:14:50;;;;;;;107.37;48.17;;;3.00;99.90;;;;;;4953489;28;20289;-78
2022/01/26 05:17:19;;;;;;;103.73;46.03;;;3.00;99.90;;;;;;4952438;28;20179;-79
2022/01/26 05:19:45;;;;;;;106.53;47.23;;;3.00;99.90;;;;;;4954209;28;20181;-79
2022/01/26 05:22:11;;;;;;;101.80;46.63;;;3.00;99.90;;;;;;4953215;28;20233;-79
2022/01/26 05:24:37;;;;;;;105.87;46.07;;;3.00;99.90;;;;;;4953665;28;20195;-78
2022/01/26 05:27:03;;;;;;;103.27;45.47;;;3.00;99.90;;;;;;4953818;28;20606;-79
2022/01/26 05:29:29;;;;;;;106.90;48.77;;;2.90;99.90;;;;;;4952250;28;20182;-79
2022/01/26 05:31:54;;;;;;;115.97;50.03;;;2.90;99.90;;;;;;4953771;28;20678;-79
2022/01/26 05:34:20;;;;;;;103.20;46.87;;;2.90;99.90;;;;;;4953429;28;20202;-79
2022/01/26 05:36:45;;;;;;;100.97;47.07;;;2.90;99.90;;;;;;4952216;28;20183;-79
2022/01/26 05:39:11;;;;;;;105.73;47.67;;;2.90;99.90;;;;;;4955053;28;20254;-79
2022/01/26 05:41:38;;;;;;;102.80;46.67;;;2.90;99.90;;;;;;4952701;28;20179;-79
2022/01/26 05:44:05;;;;;;;103.33;45.63;;;2.90;99.90;;;;;;4952955;28;20202;-79
2022/01/26 05:46:38;;;;;;;113.13;49.53;;;3.00;99.90;;;;;;4955269;28;20213;-79
2022/01/26 05:49:03;;;;;;;107.50;49.17;;;2.90;99.90;;;;;;4956981;28;20243;-79
2022/01/26 05:51:32;;;;;;;105.07;47.77;;;3.00;99.90;;;;;;4954795;28;20235;-79
2022/01/26 05:53:58;;;;;;;108.50;48.07;;;3.00;99.90;;;;;;4956309;28;20175;-79
2022/01/26 05:56:23;;;;;;;106.47;46.93;;;3.00;99.90;;;;;;4955040;28;20183;-78
2022/01/26 05:58:49;;;;;;;101.13;45.23;;;2.90;99.90;;;;;;4954856;28;20266;-79
2022/01/26 06:01:15;;;;;;;106.33;46.53;;;2.90;99.90;;;;;;4955940;28;20183;-79
2022/01/26 06:03:41;;;;;;;98.70;44.37;;;2.90;99.90;;;;;;4957563;28;20190;-80
2022/01/26 06:06:06;;;;;;;104.67;47.37;;;2.90;99.90;;;;;;4956653;28;20203;-80
2022/01/26 06:08:32;;;;;;;99.23;44.50;;;2.90;99.90;;;;;;4957175;28;20187;-80
2022/01/26 06:10:59;;;;;;;106.37;46.77;;;2.90;99.90;;;;;;4956961;29;20301;-80
2022/01/26 06:13:25;;;;;;;104.30;46.43;;;2.90;99.90;;;;;;4958367;28;20168;-80
2022/01/26 06:15:51;;;;;;;106.77;46.67;;;2.80;99.90;;;;;;4957981;28;20245;-81
2022/01/26 06:18:17;;;;;;;103.57;46.10;;;2.90;99.90;;;;;;4956224;28;20278;-81
2022/01/26 06:20:43;;;;;;;101.33;42.80;;;2.90;99.90;;;;;;4958068;28;20649;-81
2022/01/26 06:23:09;;;;;;;103.00;44.50;;;2.80;99.90;;;;;;4957668;29;20222;-82
2022/01/26 06:25:34;;;;;;;109.30;45.10;;;2.80;99.90;;;;;;4956279;28;20199;-81
2022/01/26 06:28:05;;;;;;;102.80;43.43;;;2.80;99.90;;;;;;4955856;28;20187;-82
2022/01/26 06:30:31;;;;;;;102.87;44.80;;;2.80;99.90;;;;;;4957812;28;20278;-81
2022/01/26 06:32:57;;;;;;;109.80;46.00;;;2.80;99.90;;;;;;4958240;28;20700;-81
2022/01/26 06:35:23;;;;;;;109.80;47.07;;;2.80;99.90;;;;;;4957442;28;20673;-82
2022/01/26 06:37:49;;;;;;;101.77;44.43;;;2.80;99.90;;;;;;4957082;28;20182;-80
2022/01/26 06:40:14;;;;;;;108.03;46.10;;;2.80;99.90;;;;;;4955352;28;20175;-80
2022/01/26 06:42:52;;;;;;;105.20;46.40;;;2.80;99.90;;;;;;4956913;28;20190;-80
2022/01/26 06:45:21;;;;;;;105.23;46.53;;;2.80;99.90;;;;;;4956612;28;20206;-80
2022/01/26 06:50:15;;;;;;;107.33;46.20;;;2.90;99.90;;;;;;4957084;28;20179;-80
2022/01/26 06:52:43;;;;;;;109.37;46.30;;;2.80;99.90;;;;;;4956382;28;20206;-80
2022/01/26 06:55:09;;;;;;;111.47;46.20;;;2.80;99.90;;;;;;4955493;28;20195;-80
2022/01/26 06:57:35;;;;;;;115.00;48.10;;;2.80;99.90;;;;;;4957258;28;20171;-80
2022/01/26 07:00:01;;;;;;;106.63;45.00;;;2.80;99.90;;;;;;4957447;28;20186;-80
2022/01/26 07:02:26;;;;;;;110.10;46.67;;;2.80;99.90;;;;;;4956215;28;20190;-80
2022/01/26 07:04:52;;;;;;;112.83;45.77;;;2.80;99.90;;;;;;4955799;28;20207;-80
2022/01/26 07:07:17;;;;;;;110.00;44.97;;;2.80;99.90;;;;;;4955572;28;20187;-80
2022/01/26 07:09:43;;;;;;;111.00;45.37;;;2.80;99.90;;;;;;4957942;28;20187;-80
2022/01/26 07:12:08;;;;;;;104.13;43.20;;;2.80;99.90;;;;;;4958746;28;20591;-80
2022/01/26 07:22:37;;;;;;;105.47;42.63;;;2.70;99.90;;;;;;4956516;28;20159;-80
2022/01/26 07:25:03;;;;;;;104.10;44.50;;;2.70;99.90;;;;;;4957134;28;20581;-80
2022/01/26 07:27:28;;;;;;;99.70;42.03;;;2.80;99.90;;;;;;4956175;28;20266;-79
2022/01/26 07:29:54;;;;;;;112.73;44.57;;;2.80;99.90;;;;;;4956780;28;20179;-80
2022/01/26 07:32:19;;;;;;;107.80;44.30;;;2.80;99.90;;;;;;4954797;29;20195;-80
2022/01/26 07:34:45;;;;;;;120.10;47.90;;;2.80;99.90;;;;;;4954607;28;20195;-80
2022/01/26 07:37:13;;;;;;;107.87;44.53;;;2.80;99.90;;;;;;4954852;29;20183;-80
2022/01/26 07:39:49;;;;;;;115.63;46.70;;;2.80;99.90;;;;;;4956309;28;20258;-80
2022/01/26 07:42:15;;;;;;;109.50;45.30;;;2.80;99.90;;;;;;4954891;29;20167;-80
2022/01/26 07:44:41;;;;;;;115.13;46.17;;;2.80;99.90;;;;;;4956192;28;20298;-79
2022/01/26 07:47:07;;;;;;;109.53;44.80;;;2.70;99.90;;;;;;4955491;28;20188;-79
2022/01/26 07:49:33;;;;;;;110.43;45.20;;;2.80;99.90;;;;;;4953476;28;20175;-79
2022/01/26 07:51:59;;;;;;;104.87;43.47;;;2.80;99.90;;;;;;4954295;28;20323;-79
2022/01/26 07:54:25;;;;;;;111.93;44.50;;;2.80;99.90;;;;;;4954571;28;20269;-79
2022/01/26 07:56:50;;;;;;;116.60;45.07;;;2.80;99.90;;;;;;4953395;29;20199;-79
2022/01/26 07:59:16;;;;;;;115.63;44.13;;;2.80;99.90;;;;;;4954806;28;20539;-80
2022/01/26 08:01:42;;;;;;;109.13;44.30;;;2.80;99.90;;;;;;4952642;28;20183;-80
2022/01/26 08:04:07;;;;;;;102.47;44.07;;;2.80;99.90;;;;;;4952051;28;20179;-80
2022/01/26 08:06:32;;;;;;;108.23;44.83;;;2.80;99.90;;;;;;4953109;28;20176;-79
2022/01/26 08:08:58;;;;;;;108.93;43.27;;;2.80;99.90;;;;;;4953160;28;20186;-80
2022/01/26 08:11:24;;;;;;;106.73;43.30;;;2.80;99.90;;;;;;4953592;28;20206;-80
2022/01/26 08:13:51;;;;;;;109.03;44.57;;;2.80;99.90;;;;;;4951956;28;20206;-80
2022/01/26 08:16:16;;;;;;;111.17;43.50;;;2.80;99.90;;;;;;4953091;28;20605;-80
2022/01/26 08:18:42;;;;;;;114.90;46.70;;;2.90;99.90;;;;;;4951700;28;20183;-81
2022/01/26 08:21:07;;;;;;;111.83;45.63;;;2.80;99.90;;;;;;4953451;28;20184;-80
2022/01/26 08:23:35;;;;;;;108.30;44.50;;;2.80;99.90;;;;;;4953325;28;20179;-80
2022/01/26 08:26:01;;;;;;;119.37;45.90;;;2.90;99.90;;;;;;4952964;28;20199;-80
2022/01/26 08:28:34;;;;;;;112.30;45.57;;;2.90;99.90;;;;;;4953163;28;20175;-80
2022/01/26 08:31:00;;;;;;;123.07;46.00;;;2.80;99.90;;;;;;4952565;29;20183;-80
2022/01/26 08:33:25;;;;;;;121.17;49.13;;;2.90;99.90;;;;;;4953241;28;20581;-80
2022/01/26 08:35:51;;;;;;;115.23;46.03;;;2.90;99.90;;;;;;4952933;28;20564;-80
2022/01/26 08:38:17;;;;;;;116.17;45.87;;;2.90;99.90;;;;;;4952261;28;20221;-81
2022/01/26 08:40:44;;;;;;;123.63;48.10;;;2.90;99.90;;;;;;4952944;28;20176;-80
2022/01/26 08:43:10;;;;;;;125.63;46.37;;;2.90;99.90;;;;;;4951965;28;20563;-80
2022/01/26 08:45:35;;;;;;;116.27;46.57;;;2.90;99.90;;;;;;4951349;29;20214;-80
2022/01/26 08:48:01;;;;;;;129.33;48.90;;;2.90;99.90;;;;;;4953181;28;20553;-80
2022/01/26 08:50:26;;;;;;;122.57;48.10;;;2.90;99.90;;;;;;4952982;28;20261;-80
2022/01/26 08:52:52;;;;;;;117.97;47.33;;;2.90;99.90;;;;;;4951571;28;20199;-80
2022/01/26 08:55:18;;;;;;;121.20;47.03;;;2.90;99.90;;;;;;4951703;28;20195;-79
2022/01/26 08:57:44;;;;;;;138.87;50.43;;;3.00;99.90;;;;;;4953139;28;20697;-80
2022/01/26 09:00:11;;;;;;;123.37;49.50;;;3.30;99.90;;;;;;4951453;28;20202;-80
2022/01/26 09:02:37;;;;;;;131.60;51.00;;;3.00;99.90;;;;;;4951290;29;20539;-80
2022/01/26 09:05:08;;;;;;;129.10;50.77;;;2.90;99.90;;;;;;4951733;28;20205;-80
2022/01/26 09:07:34;;;;;;;130.23;50.47;;;3.00;99.90;;;;;;4951279;29;20183;-80
2022/01/26 09:10:01;;;;;;;136.00;51.73;;;3.00;99.90;;;;;;4953207;28;20206;-80
2022/01/26 09:12:29;;;;;;;124.23;49.87;;;3.00;99.90;;;;;;4951402;28;20199;-80
2022/01/26 09:14:54;;;;;;;128.00;49.97;;;2.90;99.90;;;;;;4951410;28;20208;-80
2022/01/26 09:17:20;;;;;;;131.93;52.33;;;3.00;99.90;;;;;;4952529;28;20175;-79
2022/01/26 09:19:48;;;;;;;143.43;50.90;;;3.00;99.90;;;;;;4953513;28;20194;-79
2022/01/26 09:22:16;;;;;;;137.63;53.83;;;3.00;99.90;;;;;;4957065;28;20183;-80
2022/01/26 09:24:43;;;;;;;135.40;51.00;;;3.00;99.90;;;;;;4955760;28;20680;-80
2022/01/26 09:27:14;;;;;;;140.47;52.03;;;3.00;99.90;;;;;;4955708;28;20645;-80
2022/01/26 09:29:40;;;;;;;136.47;52.50;;;3.10;99.90;;;;;;4954545;28;20664;-80
2022/01/26 09:32:07;;;;;;;138.43;52.97;;;3.00;99.90;;;;;;4955474;28;20293;-80
2022/01/26 09:34:35;;;;;;;137.33;52.47;;;3.00;99.90;;;;;;4955465;28;20745;-80
2022/01/26 09:37:05;;;;;;;132.13;50.87;;;3.00;99.90;;;;;;4956021;28;20175;-80
2022/01/26 09:39:30;;;;;;;132.73;51.93;;;3.00;99.90;;;;;;4955392;28;20175;-80
2022/01/26 09:41:58;;;;;;;138.93;51.30;;;3.00;99.90;;;;;;4955611;28;20195;-80
2022/01/26 09:44:23;;;;;;;137.37;52.70;;;3.00;99.90;;;;;;4953720;28;20276;-80
2022/01/26 09:46:49;;;;;;;134.77;51.80;;;3.10;99.90;;;;;;4953725;28;20184;-80
2022/01/26 09:49:16;;;;;;;136.37;51.70;;;3.10;99.90;;;;;;4955169;28;20183;-80
2022/01/26 09:51:44;;;;;;;126.10;51.87;;;3.00;99.90;;;;;;4955431;28;20229;-80
2022/01/26 09:54:15;;;;;;;131.90;49.40;;;3.00;99.90;;;;;;4955929;28;20658;-80
2022/01/26 09:56:42;;;;;;;133.43;50.47;;;3.00;99.90;;;;;;4954777;29;20213;-80
2022/01/26 09:59:08;;;;;;;122.77;48.00;;;3.00;99.90;;;;;;4955857;28;20522;-80
2022/01/26 10:01:48;;;;;;;123.60;48.63;;;3.00;99.90;;;;;;4955717;29;20190;-80
2022/01/26 10:04:31;;;;;;;131.70;49.97;;;3.00;99.90;;;;;;4955473;28;20179;-80
2022/01/26 10:07:25;;;;;;;122.20;47.37;;;3.10;99.90;;;;;;4956003;29;20175;-78
2022/01/26 10:18:04;;;;;;;129.10;50.20;;;3.10;99.90;;;;;;4956202;28;20171;-80
2022/01/26 10:20:49;;;;;;;132.13;48.97;;;3.10;99.90;;;;;;4957360;28;20529;-79
2022/01/26 10:23:20;;;;;;;134.47;50.27;;;3.20;99.90;;;;;;4960358;28;20273;-80
2022/01/26 10:26:14;;;;;;;130.87;48.17;;;3.20;99.90;;;;;;4960280;28;20275;-79
2022/01/26 10:28:52;;;;;;;136.50;50.23;;;3.20;99.90;;;;;;4957014;28;20254;-79
2022/01/26 10:31:21;;;;;;;134.47;49.93;;;3.20;99.90;;;;;;4954633;28;20194;-80
2022/01/26 10:34:00;;;;;;;139.07;51.40;;;3.20;99.90;;;;;;4954677;28;20180;-79
2022/01/26 10:36:35;;;;;;;130.10;48.77;;;3.20;99.90;;;;;;4953595;28;20175;-79
2022/01/26 10:39:08;;;;;;;121.03;48.90;;;3.20;99.90;;;;;;4955896;28;20240;-80
2022/01/26 10:41:38;;;;;;;124.90;46.93;;;3.20;99.90;;;;;;4955323;28;20588;-80
2022/01/26 10:44:04;;;;;;;131.00;48.80;;;3.20;99.90;;;;;;4952996;28;20195;-80
2022/01/26 10:46:36;;;;;;;139.03;48.13;;;3.20;99.90;;;;;;4953372;28;20602;-79
2022/01/26 10:49:08;;;;;;;126.47;47.97;;;3.20;99.90;;;;;;4955219;28;20167;-79
2022/01/26 10:54:13;;;;;;;148.43;50.37;;;3.20;99.90;;;;;;4955827;28;20167;-79
2022/01/26 10:56:39;;;;;;;136.73;49.23;;;3.20;99.90;;;;;;4954037;29;20171;-80
2022/01/26 10:59:05;;;;;;;140.07;50.53;;;3.20;99.90;;;;;;4955481;28;20210;-79
2022/01/26 11:01:30;;;;;;;140.53;48.30;;;3.10;99.90;;;;;;4956368;28;20174;-81
2022/01/26 11:03:56;;;;;;;132.33;48.60;;;3.20;99.90;;;;;;4956773;28;20179;-81
2022/01/26 11:06:22;;;;;;;130.03;47.40;;;3.20;99.90;;;;;;4954943;28;20206;-80
2022/01/26 11:08:48;;;;;;;141.10;50.10;;;3.20;99.90;;;;;;4954207;28;20233;-80
2022/01/26 11:11:23;;;;;;;122.20;45.33;;;3.20;99.90;;;;;;4955084;28;20183;-80
2022/01/26 11:13:49;;;;;;;137.60;49.93;;;3.20;99.90;;;;;;4955908;28;20205;-80
2022/01/26 11:16:18;;;;;;;136.43;47.07;;;3.30;99.90;;;;;;4953993;28;20202;-80
2022/01/26 11:18:51;;;;;;;129.00;46.37;;;3.20;99.90;;;;;;4954237;28;20270;-80
2022/01/26 11:21:36;;;;;;;134.87;47.30;;;3.20;99.90;;;;;;4956497;28;20159;-80
2022/01/26 11:24:23;;;;;;;125.60;44.73;;;3.20;99.90;;;;;;4955692;28;20171;-80
2022/01/26 11:27:01;;;;;;;135.13;45.60;;;3.20;99.90;;;;;;4956379;28;20232;-80
2022/01/26 11:29:33;;;;;;;122.13;46.50;;;3.20;99.90;;;;;;4955375;29;20706;-80
2022/01/26 11:32:12;;;;;;;118.63;45.47;;;3.30;99.90;;;;;;4954942;29;20203;-80
2022/01/26 11:34:39;;;;;;;134.33;46.20;;;3.30;99.90;;;;;;4956381;28;20582;-80
2022/01/26 11:37:08;;;;;;;126.33;46.47;;;3.30;99.90;;;;;;4956384;28;20186;-80
2022/01/26 11:45:05;;;;;;;122.00;45.17;;;3.30;99.90;;;;;;4955190;28;20215;-80
2022/01/26 11:47:32;;;;;;;122.50;45.90;;;3.30;99.90;;;;;;4953671;29;20189;-80
2022/01/26 11:50:05;;;;;;;122.53;45.20;;;3.30;99.90;;;;;;4953766;29;20191;-80
2022/01/26 11:52:37;;;;;;;112.70;43.97;;;3.40;99.90;;;;;;4955466;28;20199;-80
2022/01/26 11:55:30;;;;;;;111.07;44.37;;;3.30;99.90;;;;;;4954208;28;20202;-80
2022/01/26 11:58:05;;;;;;;120.63;45.97;;;3.30;99.90;;;;;;4954991;28;20160;-80
2022/01/26 12:00:43;;;;;;;116.37;44.07;;;3.40;99.90;;;;;;4955239;28;20162;-80
2022/01/26 12:03:23;;;;;;;119.83;45.20;;;3.30;99.90;;;;;;4955343;28;20162;-81
2022/01/26 12:05:52;;;;;;;111.27;42.23;;;3.30;99.90;;;;;;4954776;28;20277;-80
2022/01/26 12:08:31;;;;;;;124.97;44.50;;;3.30;99.90;;;;;;4953430;29;20187;-80
2022/01/26 12:10:57;;;;;;;119.67;42.73;;;3.30;99.90;;;;;;4955452;28;20254;-80
2022/01/26 12:13:29;;;;;;;117.73;43.50;;;3.30;99.90;;;;;;4954880;28;20242;-80
2022/01/26 12:15:58;;;;;;;126.23;44.87;;;3.30;99.90;;;;;;4953279;28;20700;-80
2022/01/26 12:18:32;;;;;;;114.77;43.00;;;3.40;99.90;;;;;;4954293;28;20173;-80
2022/01/26 12:35:29;;;;;;;110.40;41.57;;;3.40;99.90;;;;;;4961405;28;20652;-80
2022/01/26 12:43:12;;;;;;;120.30;42.60;;;3.40;99.90;;;;;;4958748;28;20234;-80
2022/01/26 12:45:38;;;;;;;108.40;40.37;;;3.40;99.90;;;;;;4956867;28;20302;-80
2022/01/26 12:48:08;;;;;;;111.57;41.10;;;3.40;99.90;;;;;;4959233;29;20215;-80
2022/01/26 12:50:34;;;;;;;122.10;41.90;;;3.40;99.90;;;;;;4952494;29;20187;-80
2022/01/26 12:53:00;;;;;;;112.07;40.60;;;3.40;99.90;;;;;;4953294;28;20202;-80
2022/01/26 12:55:29;;;;;;;103.37;40.07;;;3.40;99.90;;;;;;4953918;28;20199;-80
2022/01/26 12:57:55;;;;;;;106.43;41.90;;;3.40;99.90;;;;;;4953306;28;20180;-80
2022/01/26 13:00:23;;;;;;;104.73;39.73;;;3.40;99.90;;;;;;4951671;28;20178;-80
2022/01/26 13:02:50;;;;;;;106.93;39.67;;;3.30;99.90;;;;;;4953438;28;20186;-80
2022/01/26 13:05:25;;;;;;;102.57;40.87;;;3.40;99.90;;;;;;4951942;29;20217;-80
2022/01/26 13:08:01;;;;;;;102.40;38.33;;;3.40;99.90;;;;;;4952287;29;20183;-80
2022/01/26 13:10:28;;;;;;;97.27;38.30;;;3.40;99.90;;;;;;4951678;29;20182;-80
2022/01/26 13:12:54;;;;;;;107.80;39.33;;;3.40;99.90;;;;;;4951775;28;20549;-80
2022/01/26 13:15:36;;;;;;;103.73;38.67;;;3.40;99.90;;;;;;4952143;28;20198;-80
2022/01/26 13:18:16;;;;;;;106.27;39.53;;;3.40;99.90;;;;;;4951849;29;20225;-80
2022/01/26 13:24:25;;;;;;;102.17;38.40;;;3.40;99.90;;;;;;4931745;28;20704;-80
2022/01/26 13:26:55;;;;;;;91.03;35.33;;;3.40;99.90;;;;;;4949315;28;20229;-80
2022/01/26 13:29:39;;;;;;;99.57;37.20;;;3.40;99.90;;;;;;4953052;28;20251;-80
2022/01/26 13:35:33;;;;;;;97.27;37.10;;;3.40;99.90;;;;;;4912131;28;20577;-79
2022/01/26 13:40:43;;;;;;;86.40;35.50;;;3.50;99.90;;;;;;4953480;28;20180;-80
2022/01/26 13:47:02;;;;;;;93.67;36.23;;;3.50;99.90;;;;;;4953535;28;20565;-80
2022/01/26 13:51:44;;;;;;;89.40;33.80;;;3.50;99.90;;;;;;4953909;28;20545;-80
2022/01/26 13:59:20;;;;;;;86.70;34.83;;;3.50;99.90;;;;;;4953530;28;20542;-80
2022/01/26 14:01:48;;;;;;;88.50;35.73;;;3.50;99.90;;;;;;4954194;28;20160;-79
2022/01/26 14:04:18;;;;;;;85.13;33.00;;;3.40;99.90;;;;;;4953229;29;20191;-79
2022/01/26 14:06:44;;;;;;;87.20;34.17;;;3.50;99.90;;;;;;4955179;28;20175;-80
2022/01/26 14:09:10;;;;;;;86.57;34.27;;;3.50;99.90;;;;;;4956472;28;20191;-79
2022/01/26 14:11:36;;;;;;;79.67;33.83;;;3.50;99.90;;;;;;4955833;28;20284;-80
2022/01/26 14:14:02;;;;;;;85.47;32.97;;;3.50;99.90;;;;;;4955256;28;20269;-80
2022/01/26 14:16:33;;;;;;;80.80;33.67;;;3.50;99.90;;;;;;4955928;28;20238;-80
2022/01/26 14:19:07;;;;;;;83.53;34.20;;;3.50;99.90;;;;;;4956303;28;20525;-80
2022/01/26 14:26:46;;;;;;;74.03;31.53;;;3.50;99.90;;;;;;4956968;28;20263;-80
2022/01/26 14:40:38;;;;;;;76.37;32.13;;;3.50;99.90;;;;;;4957288;29;20165;-80
2022/01/26 14:51:37;;;;;;;83.93;33.47;;;3.50;99.90;;;;;;4957130;29;20170;-80
2022/01/26 14:54:19;;;;;;;80.90;31.90;;;3.50;99.90;;;;;;4956438;28;20644;-80
2022/01/26 15:40:24;;;;;;;76.40;30.50;;;3.60;99.90;;;;;;4955811;29;20171;-80
2022/01/26 15:43:27;;;;;;;72.17;30.93;;;3.50;99.90;;;;;;4956166;28;20209;-80
2022/01/26 15:52:09;;;;;;;74.57;30.87;;;3.50;99.90;;;;;;4951704;29;20214;-80
2022/01/26 16:07:45;;;;;;;73.40;30.27;;;3.60;99.90;;;;;;4954973;28;20170;-79
2022/01/26 16:52:23;;;;;;;70.43;29.97;;;3.60;99.90;;;;;;4955561;28;20171;-79
2022/01/26 17:13:02;;;;;;;74.93;31.63;;;3.50;99.90;;;;;;4954081;29;20626;-78
2022/01/26 18:15:18;;;;;;;76.60;32.93;;;3.40;99.90;;;;;;4956375;29;20288;-78
2022/01/26 18:49:32;;;;;;;75.73;33.13;;;3.30;99.90;;;;;;4954310;28;20174;-77
2022/01/26 18:51:59;;;;;;;73.27;32.63;;;3.30;99.90;;;;;;4953853;28;20628;-77
2022/01/26 18:54:30;;;;;;;71.73;30.67;;;3.30;99.90;;;;;;4954151;28;20191;-78
2022/01/26 18:56:58;;;;;;;67.17;30.67;;;3.30;99.90;;;;;;4952949;29;20278;-77
2022/01/26 18:59:25;;;;;;;69.20;30.83;;;3.30;99.90;;;;;;4954039;28;20201;-78
2022/01/26 19:01:52;;;;;;;69.80;30.00;;;3.30;99.90;;;;;;4954788;29;20190;-78
2022/01/26 19:04:25;;;;;;;67.63;29.60;;;3.30;99.90;;;;;;4954566;28;20179;-77
2022/01/26 19:06:52;;;;;;;67.40;30.80;;;3.30;99.90;;;;;;4953189;29;20233;-78
2022/01/26 19:09:22;;;;;;;66.27;30.00;;;3.30;99.90;;;;;;4953200;29;20213;-78